Calgary, Canada
Current Conditions -  °F | °C
As of 5:00 PM on Saturday 20 Dec 2014 (Local Time) from CYYC Reporting Station
Broken Clouds Broken Clouds  
Wind Chill: 29°   Ceiling: 18000
Heat Index: 34°   Visibility: 30mi
Dew Point: 19°   Wind: 6mph
Humidity: 56%   Direction: 190°S
Pressure: 29.5"   Gusts: NA
Location:  51.05°N, 114.06°W
Report Text: CYYC 210000Z 19005KT 30SM SCT100 BKN180 BKN210 01/M07 A2950 RMK AC3AC2CI1 SLP028
Loading
Personal Weather Stations






























Interactive Weather Map New forecast layout! Learn more

10-Day Weather Forecast

Advertisements
Track Severe Weather on mobile